sensor_id;sensor_type;location;lat;lon;timestamp;P1;durP1;ratioP1;P2;durP2;ratioP2
15071;SDS011;7635;56.696;13.002;2024-03-02T00:01:34;22.58;;;8.40;;
15071;SDS011;7635;56.696;13.002;2024-03-02T00:04:03;22.92;;;9.20;;
15071;SDS011;7635;56.696;13.002;2024-03-02T00:06:31;16.55;;;8.68;;
15071;SDS011;7635;56.696;13.002;2024-03-02T00:08:58;19.55;;;8.27;;
15071;SDS011;7635;56.696;13.002;2024-03-02T00:11:25;20.65;;;8.35;;
15071;SDS011;7635;56.696;13.002;2024-03-02T00:13:54;20.40;;;10.47;;
15071;SDS011;7635;56.696;13.002;2024-03-02T00:16:21;16.43;;;8.13;;
15071;SDS011;7635;56.696;13.002;2024-03-02T00:18:49;23.17;;;10.57;;
15071;SDS011;7635;56.696;13.002;2024-03-02T00:21:16;25.58;;;10.63;;
15071;SDS011;7635;56.696;13.002;2024-03-02T00:23:46;21.95;;;9.50;;
15071;SDS011;7635;56.696;13.002;2024-03-02T00:26:14;25.60;;;11.38;;
15071;SDS011;7635;56.696;13.002;2024-03-02T00:28:42;26.13;;;10.73;;
15071;SDS011;7635;56.696;13.002;2024-03-02T00:31:11;23.87;;;10.27;;
15071;SDS011;7635;56.696;13.002;2024-03-02T00:33:40;27.73;;;10.93;;
15071;SDS011;7635;56.696;13.002;2024-03-02T00:36:08;21.23;;;10.43;;
15071;SDS011;7635;56.696;13.002;2024-03-02T00:38:40;26.33;;;10.57;;
15071;SDS011;7635;56.696;13.002;2024-03-02T00:41:14;26.30;;;9.48;;
15071;SDS011;7635;56.696;13.002;2024-03-02T00:43:42;25.48;;;11.38;;
15071;SDS011;7635;56.696;13.002;2024-03-02T00:46:15;29.33;;;13.23;;
15071;SDS011;7635;56.696;13.002;2024-03-02T00:48:45;30.03;;;11.17;;
15071;SDS011;7635;56.696;13.002;2024-03-02T00:51:14;20.38;;;10.02;;
15071;SDS011;7635;56.696;13.002;2024-03-02T00:53:41;22.63;;;11.20;;
15071;SDS011;7635;56.696;13.002;2024-03-02T00:56:09;26.07;;;10.87;;
15071;SDS011;7635;56.696;13.002;2024-03-02T00:58:36;26.52;;;11.25;;
15071;SDS011;7635;56.696;13.002;2024-03-02T01:01:03;24.47;;;10.83;;
15071;SDS011;7635;56.696;13.002;2024-03-02T01:03:33;25.23;;;11.57;;
15071;SDS011;7635;56.696;13.002;2024-03-02T01:06:02;21.73;;;10.70;;
15071;SDS011;7635;56.696;13.002;2024-03-02T01:08:29;25.03;;;11.00;;
15071;SDS011;7635;56.696;13.002;2024-03-02T01:10:56;23.13;;;9.77;;
15071;SDS011;7635;56.696;13.002;2024-03-02T01:13:23;22.88;;;9.98;;
15071;SDS011;7635;56.696;13.002;2024-03-02T01:15:51;24.88;;;10.10;;
15071;SDS011;7635;56.696;13.002;2024-03-02T01:18:18;27.57;;;11.17;;
15071;SDS011;7635;56.696;13.002;2024-03-02T01:20:48;26.63;;;11.23;;
15071;SDS011;7635;56.696;13.002;2024-03-02T01:23:16;20.75;;;10.02;;
15071;SDS011;7635;56.696;13.002;2024-03-02T01:25:44;27.30;;;10.30;;
15071;SDS011;7635;56.696;13.002;2024-03-02T01:28:12;19.50;;;11.05;;
15071;SDS011;7635;56.696;13.002;2024-03-02T01:30:39;21.77;;;11.10;;
15071;SDS011;7635;56.696;13.002;2024-03-02T01:33:06;23.30;;;10.33;;
15071;SDS011;7635;56.696;13.002;2024-03-02T01:35:32;18.98;;;10.00;;
15071;SDS011;7635;56.696;13.002;2024-03-02T01:38:01;25.40;;;10.75;;
15071;SDS011;7635;56.696;13.002;2024-03-02T01:40:28;29.15;;;11.23;;
15071;SDS011;7635;56.696;13.002;2024-03-02T01:46:10;29.92;;;10.85;;
15071;SDS011;7635;56.696;13.002;2024-03-02T01:48:55;24.50;;;9.63;;
15071;SDS011;7635;56.696;13.002;2024-03-02T01:51:28;22.15;;;9.70;;
15071;SDS011;7635;56.696;13.002;2024-03-02T01:54:11;26.33;;;10.73;;
15071;SDS011;7635;56.696;13.002;2024-03-02T01:59:45;19.98;;;9.93;;
15071;SDS011;7635;56.696;13.002;2024-03-02T02:03:39;24.48;;;11.15;;
15071;SDS011;7635;56.696;13.002;2024-03-02T02:05:22;24.05;;;10.20;;
15071;SDS011;7635;56.696;13.002;2024-03-02T02:08:07;20.13;;;9.68;;
15071;SDS011;7635;56.696;13.002;2024-03-02T02:11:12;22.60;;;10.33;;
15071;SDS011;7635;56.696;13.002;2024-03-02T02:14:04;28.47;;;12.03;;
15071;SDS011;7635;56.696;13.002;2024-03-02T02:17:30;27.90;;;12.27;;
15071;SDS011;7635;56.696;13.002;2024-03-02T02:19:51;26.50;;;10.40;;
15071;SDS011;7635;56.696;13.002;2024-03-02T02:22:21;24.67;;;11.65;;
15071;SDS011;7635;56.696;13.002;2024-03-02T02:25:12;21.97;;;9.73;;
15071;SDS011;7635;56.696;13.002;2024-03-02T02:28:00;26.60;;;12.05;;
15071;SDS011;7635;56.696;13.002;2024-03-02T02:33:55;27.03;;;10.67;;
15071;SDS011;7635;56.696;13.002;2024-03-02T02:42:51;23.42;;;11.20;;
15071;SDS011;7635;56.696;13.002;2024-03-02T02:45:29;25.15;;;10.82;;
15071;SDS011;7635;56.696;13.002;2024-03-02T02:50:51;32.38;;;14.73;;
15071;SDS011;7635;56.696;13.002;2024-03-02T02:53:21;29.33;;;13.80;;
15071;SDS011;7635;56.696;13.002;2024-03-02T02:58:43;25.40;;;11.57;;
15071;SDS011;7635;56.696;13.002;2024-03-02T03:01:10;25.67;;;12.43;;
15071;SDS011;7635;56.696;13.002;2024-03-02T03:03:37;26.77;;;12.18;;
15071;SDS011;7635;56.696;13.002;2024-03-02T03:06:04;31.42;;;13.55;;
15071;SDS011;7635;56.696;13.002;2024-03-02T03:08:31;27.63;;;13.13;;
15071;SDS011;7635;56.696;13.002;2024-03-02T03:10:58;31.37;;;13.07;;
15071;SDS011;7635;56.696;13.002;2024-03-02T03:13:26;30.77;;;13.10;;
15071;SDS011;7635;56.696;13.002;2024-03-02T03:15:54;30.98;;;13.25;;
15071;SDS011;7635;56.696;13.002;2024-03-02T03:18:21;31.60;;;13.37;;
15071;SDS011;7635;56.696;13.002;2024-03-02T03:20:48;26.87;;;11.80;;
15071;SDS011;7635;56.696;13.002;2024-03-02T03:23:16;42.00;;;16.73;;
15071;SDS011;7635;56.696;13.002;2024-03-02T03:25:43;30.10;;;13.30;;
15071;SDS011;7635;56.696;13.002;2024-03-02T03:28:10;26.77;;;12.87;;
15071;SDS011;7635;56.696;13.002;2024-03-02T03:30:37;33.73;;;12.77;;
15071;SDS011;7635;56.696;13.002;2024-03-02T03:33:05;25.33;;;13.60;;
15071;SDS011;7635;56.696;13.002;2024-03-02T03:35:33;34.03;;;15.52;;
15071;SDS011;7635;56.696;13.002;2024-03-02T03:38:00;29.67;;;13.60;;
15071;SDS011;7635;56.696;13.002;2024-03-02T03:40:27;26.02;;;12.02;;
15071;SDS011;7635;56.696;13.002;2024-03-02T03:42:54;21.55;;;12.35;;
15071;SDS011;7635;56.696;13.002;2024-03-02T03:45:21;26.92;;;12.75;;
15071;SDS011;7635;56.696;13.002;2024-03-02T03:47:50;28.03;;;12.47;;
15071;SDS011;7635;56.696;13.002;2024-03-02T03:50:19;27.10;;;12.15;;
15071;SDS011;7635;56.696;13.002;2024-03-02T03:52:46;19.08;;;10.20;;
15071;SDS011;7635;56.696;13.002;2024-03-02T03:55:13;23.70;;;12.80;;
15071;SDS011;7635;56.696;13.002;2024-03-02T03:57:40;27.85;;;12.98;;
15071;SDS011;7635;56.696;13.002;2024-03-02T04:00:07;24.85;;;11.27;;
15071;SDS011;7635;56.696;13.002;2024-03-02T04:02:35;29.60;;;12.25;;
15071;SDS011;7635;56.696;13.002;2024-03-02T04:05:03;30.13;;;13.27;;
15071;SDS011;7635;56.696;13.002;2024-03-02T04:07:35;26.43;;;12.83;;
15071;SDS011;7635;56.696;13.002;2024-03-02T04:10:06;21.92;;;10.63;;
15071;SDS011;7635;56.696;13.002;2024-03-02T04:12:33;22.02;;;11.90;;
15071;SDS011;7635;56.696;13.002;2024-03-02T04:15:03;24.47;;;11.83;;
15071;SDS011;7635;56.696;13.002;2024-03-02T04:17:39;30.85;;;14.65;;
15071;SDS011;7635;56.696;13.002;2024-03-02T04:20:06;24.02;;;11.43;;
15071;SDS011;7635;56.696;13.002;2024-03-02T04:22:37;22.40;;;10.73;;
15071;SDS011;7635;56.696;13.002;2024-03-02T04:31:51;23.73;;;11.93;;
15071;SDS011;7635;56.696;13.002;2024-03-02T04:34:30;28.63;;;12.10;;
15071;SDS011;7635;56.696;13.002;2024-03-02T04:36:58;35.03;;;13.23;;
15071;SDS011;7635;56.696;13.002;2024-03-02T04:39:27;23.07;;;12.27;;
15071;SDS011;7635;56.696;13.002;2024-03-02T04:44:48;19.50;;;9.93;;
15071;SDS011;7635;56.696;13.002;2024-03-02T04:47:24;21.83;;;10.43;;
15071;SDS011;7635;56.696;13.002;2024-03-02T04:50:01;25.90;;;11.48;;
15071;SDS011;7635;56.696;13.002;2024-03-02T04:52:29;29.42;;;13.75;;
15071;SDS011;7635;56.696;13.002;2024-03-02T04:54:58;29.38;;;13.00;;
15071;SDS011;7635;56.696;13.002;2024-03-02T04:58:01;29.58;;;12.90;;
15071;SDS011;7635;56.696;13.002;2024-03-02T05:00:28;25.10;;;13.25;;
15071;SDS011;7635;56.696;13.002;2024-03-02T05:02:56;33.17;;;14.07;;
15071;SDS011;7635;56.696;13.002;2024-03-02T05:09:29;27.60;;;14.87;;
15071;SDS011;7635;56.696;13.002;2024-03-02T05:11:40;22.65;;;11.32;;
15071;SDS011;7635;56.696;13.002;2024-03-02T05:14:35;19.60;;;11.32;;
15071;SDS011;7635;56.696;13.002;2024-03-02T05:17:11;24.55;;;10.52;;
15071;SDS011;7635;56.696;13.002;2024-03-02T05:19:38;28.95;;;11.60;;
15071;SDS011;7635;56.696;13.002;2024-03-02T05:22:05;29.90;;;14.25;;
15071;SDS011;7635;56.696;13.002;2024-03-02T05:24:32;24.73;;;10.63;;
15071;SDS011;7635;56.696;13.002;2024-03-02T05:27:01;29.83;;;13.63;;
15071;SDS011;7635;56.696;13.002;2024-03-02T05:29:28;27.70;;;13.87;;
15071;SDS011;7635;56.696;13.002;2024-03-02T05:31:55;27.33;;;12.50;;
15071;SDS011;7635;56.696;13.002;2024-03-02T05:34:22;31.30;;;12.10;;
15071;SDS011;7635;56.696;13.002;2024-03-02T05:36:49;30.20;;;13.33;;
15071;SDS011;7635;56.696;13.002;2024-03-02T05:39:17;27.50;;;12.67;;
15071;SDS011;7635;56.696;13.002;2024-03-02T05:41:47;27.43;;;12.10;;
15071;SDS011;7635;56.696;13.002;2024-03-02T05:44:32;25.52;;;12.80;;
15071;SDS011;7635;56.696;13.002;2024-03-02T05:47:22;32.38;;;12.93;;
15071;SDS011;7635;56.696;13.002;2024-03-02T05:50:24;26.80;;;13.43;;
15071;SDS011;7635;56.696;13.002;2024-03-02T05:56:18;23.38;;;11.07;;
15071;SDS011;7635;56.696;13.002;2024-03-02T05:58:48;28.57;;;14.13;;
15071;SDS011;7635;56.696;13.002;2024-03-02T06:01:34;31.63;;;14.63;;
15071;SDS011;7635;56.696;13.002;2024-03-02T06:04:19;34.50;;;15.50;;
15071;SDS011;7635;56.696;13.002;2024-03-02T06:07:00;34.10;;;15.38;;
15071;SDS011;7635;56.696;13.002;2024-03-02T06:09:34;25.88;;;11.27;;
15071;SDS011;7635;56.696;13.002;2024-03-02T06:12:09;30.10;;;15.07;;
15071;SDS011;7635;56.696;13.002;2024-03-02T06:14:54;26.67;;;13.23;;
15071;SDS011;7635;56.696;13.002;2024-03-02T06:20:23;24.77;;;11.95;;
15071;SDS011;7635;56.696;13.002;2024-03-02T06:26:27;35.50;;;15.20;;
15071;SDS011;7635;56.696;13.002;2024-03-02T06:29:24;24.38;;;11.82;;
15071;SDS011;7635;56.696;13.002;2024-03-02T06:32:10;31.53;;;14.10;;
15071;SDS011;7635;56.696;13.002;2024-03-02T06:34:49;26.13;;;12.07;;
15071;SDS011;7635;56.696;13.002;2024-03-02T06:37:21;30.47;;;12.57;;
15071;SDS011;7635;56.696;13.002;2024-03-02T06:42:58;30.13;;;12.37;;
15071;SDS011;7635;56.696;13.002;2024-03-02T06:48:41;27.33;;;12.60;;
15071;SDS011;7635;56.696;13.002;2024-03-02T06:51:37;35.55;;;13.32;;
15071;SDS011;7635;56.696;13.002;2024-03-02T06:54:36;23.93;;;11.90;;
15071;SDS011;7635;56.696;13.002;2024-03-02T06:57:20;31.48;;;14.80;;
15071;SDS011;7635;56.696;13.002;2024-03-02T07:03:41;20.85;;;11.48;;
15071;SDS011;7635;56.696;13.002;2024-03-02T07:06:22;28.10;;;11.85;;
15071;SDS011;7635;56.696;13.002;2024-03-02T07:08:50;28.23;;;12.38;;
15071;SDS011;7635;56.696;13.002;2024-03-02T07:11:18;34.13;;;15.25;;
15071;SDS011;7635;56.696;13.002;2024-03-02T07:13:45;29.73;;;13.85;;
15071;SDS011;7635;56.696;13.002;2024-03-02T07:16:12;31.65;;;13.85;;
15071;SDS011;7635;56.696;13.002;2024-03-02T07:18:53;35.03;;;13.23;;
15071;SDS011;7635;56.696;13.002;2024-03-02T07:21:21;28.33;;;13.83;;
15071;SDS011;7635;56.696;13.002;2024-03-02T07:23:48;26.47;;;13.27;;
15071;SDS011;7635;56.696;13.002;2024-03-02T07:26:15;24.52;;;11.65;;
15071;SDS011;7635;56.696;13.002;2024-03-02T07:28:44;33.75;;;14.52;;
15071;SDS011;7635;56.696;13.002;2024-03-02T07:31:12;28.57;;;13.40;;
15071;SDS011;7635;56.696;13.002;2024-03-02T07:33:40;27.17;;;14.43;;
15071;SDS011;7635;56.696;13.002;2024-03-02T07:36:07;22.27;;;11.38;;
15071;SDS011;7635;56.696;13.002;2024-03-02T07:38:45;27.23;;;14.55;;
15071;SDS011;7635;56.696;13.002;2024-03-02T07:41:35;27.38;;;13.02;;
15071;SDS011;7635;56.696;13.002;2024-03-02T07:44:04;24.60;;;11.88;;
15071;SDS011;7635;56.696;13.002;2024-03-02T07:46:32;19.52;;;9.38;;
15071;SDS011;7635;56.696;13.002;2024-03-02T07:52:38;20.13;;;9.32;;
15071;SDS011;7635;56.696;13.002;2024-03-02T07:55:15;27.92;;;12.55;;
15071;SDS011;7635;56.696;13.002;2024-03-02T07:57:48;20.33;;;10.87;;
15071;SDS011;7635;56.696;13.002;2024-03-02T08:03:49;20.05;;;11.40;;
15071;SDS011;7635;56.696;13.002;2024-03-02T08:07:23;14.90;;;8.43;;
15071;SDS011;7635;56.696;13.002;2024-03-02T08:09:31;20.80;;;10.82;;
15071;SDS011;7635;56.696;13.002;2024-03-02T08:17:39;21.97;;;11.50;;
15071;SDS011;7635;56.696;13.002;2024-03-02T08:20:23;17.67;;;9.45;;
15071;SDS011;7635;56.696;13.002;2024-03-02T08:22:59;15.55;;;7.80;;
15071;SDS011;7635;56.696;13.002;2024-03-02T08:25:33;19.67;;;8.95;;
15071;SDS011;7635;56.696;13.002;2024-03-02T08:28:15;15.18;;;8.82;;
15071;SDS011;7635;56.696;13.002;2024-03-02T08:30:42;14.88;;;8.02;;
15071;SDS011;7635;56.696;13.002;2024-03-02T08:33:09;19.33;;;9.97;;
15071;SDS011;7635;56.696;13.002;2024-03-02T08:35:38;15.52;;;9.35;;
15071;SDS011;7635;56.696;13.002;2024-03-02T08:38:05;12.60;;;6.30;;
15071;SDS011;7635;56.696;13.002;2024-03-02T08:40:32;15.02;;;9.02;;
15071;SDS011;7635;56.696;13.002;2024-03-02T08:42:59;13.25;;;7.38;;
15071;SDS011;7635;56.696;13.002;2024-03-02T08:45:26;12.52;;;6.70;;
15071;SDS011;7635;56.696;13.002;2024-03-02T08:47:53;16.77;;;7.35;;
15071;SDS011;7635;56.696;13.002;2024-03-02T08:50:20;12.77;;;7.07;;
15071;SDS011;7635;56.696;13.002;2024-03-02T08:52:49;14.33;;;8.03;;
15071;SDS011;7635;56.696;13.002;2024-03-02T08:55:16;10.70;;;6.93;;
15071;SDS011;7635;56.696;13.002;2024-03-02T08:57:43;10.15;;;6.97;;
15071;SDS011;7635;56.696;13.002;2024-03-02T09:00:10;9.13;;;6.07;;
15071;SDS011;7635;56.696;13.002;2024-03-02T09:02:37;11.20;;;7.43;;
15071;SDS011;7635;56.696;13.002;2024-03-02T09:05:05;13.40;;;8.20;;
15071;SDS011;7635;56.696;13.002;2024-03-02T09:07:32;9.10;;;6.07;;
15071;SDS011;7635;56.696;13.002;2024-03-02T09:10:01;8.73;;;5.87;;
15071;SDS011;7635;56.696;13.002;2024-03-02T09:12:28;9.87;;;6.40;;
15071;SDS011;7635;56.696;13.002;2024-03-02T09:14:55;8.40;;;5.93;;
15071;SDS011;7635;56.696;13.002;2024-03-02T09:17:22;8.47;;;5.40;;
15071;SDS011;7635;56.696;13.002;2024-03-02T09:19:49;11.77;;;6.00;;
15071;SDS011;7635;56.696;13.002;2024-03-02T09:22:17;9.93;;;5.78;;
15071;SDS011;7635;56.696;13.002;2024-03-02T09:24:44;10.90;;;6.40;;
15071;SDS011;7635;56.696;13.002;2024-03-02T09:27:13;7.50;;;5.50;;
15071;SDS011;7635;56.696;13.002;2024-03-02T09:29:40;11.20;;;5.63;;
15071;SDS011;7635;56.696;13.002;2024-03-02T09:32:07;9.50;;;5.80;;
15071;SDS011;7635;56.696;13.002;2024-03-02T09:34:35;7.97;;;5.43;;
15071;SDS011;7635;56.696;13.002;2024-03-02T09:37:02;8.80;;;5.45;;
15071;SDS011;7635;56.696;13.002;2024-03-02T09:39:29;9.87;;;5.43;;
15071;SDS011;7635;56.696;13.002;2024-03-02T09:41:57;7.72;;;5.20;;
15071;SDS011;7635;56.696;13.002;2024-03-02T09:44:27;10.23;;;5.40;;
15071;SDS011;7635;56.696;13.002;2024-03-02T09:49:57;10.27;;;7.00;;
15071;SDS011;7635;56.696;13.002;2024-03-02T09:55:36;10.23;;;7.13;;
15071;SDS011;7635;56.696;13.002;2024-03-02T09:58:08;8.00;;;5.77;;
15071;SDS011;7635;56.696;13.002;2024-03-02T10:00:49;9.07;;;5.85;;
15071;SDS011;7635;56.696;13.002;2024-03-02T10:03:32;7.20;;;5.00;;
15071;SDS011;7635;56.696;13.002;2024-03-02T10:06:20;10.40;;;6.43;;
15071;SDS011;7635;56.696;13.002;2024-03-02T10:09:11;8.57;;;5.90;;
15071;SDS011;7635;56.696;13.002;2024-03-02T10:12:03;9.83;;;6.40;;
15071;SDS011;7635;56.696;13.002;2024-03-02T10:14:33;8.05;;;5.72;;
15071;SDS011;7635;56.696;13.002;2024-03-02T10:23:40;6.90;;;4.63;;
15071;SDS011;7635;56.696;13.002;2024-03-02T10:26:26;6.78;;;5.18;;
15071;SDS011;7635;56.696;13.002;2024-03-02T10:29:15;5.63;;;4.07;;
15071;SDS011;7635;56.696;13.002;2024-03-02T10:34:56;9.20;;;5.50;;
15071;SDS011;7635;56.696;13.002;2024-03-02T10:37:46;7.57;;;5.05;;
15071;SDS011;7635;56.696;13.002;2024-03-02T10:46:23;6.45;;;4.10;;
15071;SDS011;7635;56.696;13.002;2024-03-02T11:16:18;8.30;;;4.95;;
15071;SDS011;7635;56.696;13.002;2024-03-02T11:19:20;4.07;;;3.67;;
15071;SDS011;7635;56.696;13.002;2024-03-02T11:22:05;7.37;;;4.50;;
15071;SDS011;7635;56.696;13.002;2024-03-02T11:25:06;7.00;;;4.50;;
15071;SDS011;7635;56.696;13.002;2024-03-02T11:28:01;7.70;;;4.03;;
15071;SDS011;7635;56.696;13.002;2024-03-02T11:33:18;6.07;;;4.30;;
15071;SDS011;7635;56.696;13.002;2024-03-02T11:35:49;6.17;;;5.30;;
15071;SDS011;7635;56.696;13.002;2024-03-02T11:38:17;7.35;;;4.60;;
15071;SDS011;7635;56.696;13.002;2024-03-02T11:40:44;6.18;;;4.53;;
15071;SDS011;7635;56.696;13.002;2024-03-02T11:43:11;6.20;;;4.13;;
15071;SDS011;7635;56.696;13.002;2024-03-02T11:45:38;5.07;;;4.32;;
15071;SDS011;7635;56.696;13.002;2024-03-02T11:48:09;6.70;;;3.77;;
15071;SDS011;7635;56.696;13.002;2024-03-02T11:50:41;7.55;;;4.43;;
15071;SDS011;7635;56.696;13.002;2024-03-02T11:53:09;8.03;;;5.10;;
15071;SDS011;7635;56.696;13.002;2024-03-02T11:55:38;6.73;;;4.50;;
15071;SDS011;7635;56.696;13.002;2024-03-02T11:58:05;8.80;;;5.13;;
15071;SDS011;7635;56.696;13.002;2024-03-02T12:00:33;7.45;;;5.10;;
15071;SDS011;7635;56.696;13.002;2024-03-02T12:03:00;7.40;;;5.17;;
15071;SDS011;7635;56.696;13.002;2024-03-02T12:05:28;8.10;;;4.60;;
15071;SDS011;7635;56.696;13.002;2024-03-02T12:07:57;8.45;;;4.78;;
15071;SDS011;7635;56.696;13.002;2024-03-02T12:10:24;7.47;;;5.15;;
15071;SDS011;7635;56.696;13.002;2024-03-02T12:12:55;7.05;;;4.80;;
15071;SDS011;7635;56.696;13.002;2024-03-02T12:15:23;8.03;;;5.30;;
15071;SDS011;7635;56.696;13.002;2024-03-02T12:17:52;8.95;;;4.95;;
15071;SDS011;7635;56.696;13.002;2024-03-02T12:20:19;9.80;;;4.72;;
15071;SDS011;7635;56.696;13.002;2024-03-02T12:22:48;10.02;;;5.07;;
15071;SDS011;7635;56.696;13.002;2024-03-02T12:25:16;7.93;;;5.07;;
15071;SDS011;7635;56.696;13.002;2024-03-02T12:27:44;6.00;;;3.88;;
15071;SDS011;7635;56.696;13.002;2024-03-02T12:30:19;8.50;;;4.45;;
15071;SDS011;7635;56.696;13.002;2024-03-02T12:36:01;5.45;;;3.58;;
15071;SDS011;7635;56.696;13.002;2024-03-02T12:39:36;6.88;;;3.88;;
15071;SDS011;7635;56.696;13.002;2024-03-02T12:45:09;5.07;;;3.77;;
15071;SDS011;7635;56.696;13.002;2024-03-02T13:02:56;5.53;;;3.78;;
15071;SDS011;7635;56.696;13.002;2024-03-02T13:05:29;5.70;;;3.67;;
15071;SDS011;7635;56.696;13.002;2024-03-02T13:08:54;5.73;;;3.77;;
15071;SDS011;7635;56.696;13.002;2024-03-02T13:11:35;6.00;;;3.73;;
15071;SDS011;7635;56.696;13.002;2024-03-02T13:14:21;5.57;;;3.47;;
15071;SDS011;7635;56.696;13.002;2024-03-02T13:16:58;4.80;;;3.37;;
15071;SDS011;7635;56.696;13.002;2024-03-02T13:19:33;5.03;;;3.60;;
15071;SDS011;7635;56.696;13.002;2024-03-02T13:25:09;3.47;;;2.77;;
15071;SDS011;7635;56.696;13.002;2024-03-02T13:27:49;10.13;;;3.37;;
15071;SDS011;7635;56.696;13.002;2024-03-02T13:39:24;4.03;;;3.63;;
15071;SDS011;7635;56.696;13.002;2024-03-02T13:42:12;4.28;;;2.72;;
15071;SDS011;7635;56.696;13.002;2024-03-02T13:44:44;5.05;;;2.67;;
15071;SDS011;7635;56.696;13.002;2024-03-02T13:48:09;4.20;;;3.17;;
15071;SDS011;7635;56.696;13.002;2024-03-02T13:53:14;3.75;;;3.33;;
15071;SDS011;7635;56.696;13.002;2024-03-02T14:13:51;5.13;;;3.60;;
15071;SDS011;7635;56.696;13.002;2024-03-02T14:16:38;6.00;;;3.55;;
15071;SDS011;7635;56.696;13.002;2024-03-02T14:19:12;3.50;;;3.20;;
15071;SDS011;7635;56.696;13.002;2024-03-02T14:21:57;3.72;;;2.92;;
15071;SDS011;7635;56.696;13.002;2024-03-02T14:24:55;5.13;;;3.57;;
15071;SDS011;7635;56.696;13.002;2024-03-02T14:27:42;3.77;;;3.33;;
15071;SDS011;7635;56.696;13.002;2024-03-02T14:33:28;7.03;;;3.50;;
15071;SDS011;7635;56.696;13.002;2024-03-02T14:36:05;4.03;;;3.25;;
15071;SDS011;7635;56.696;13.002;2024-03-02T14:38:53;6.43;;;3.80;;
15071;SDS011;7635;56.696;13.002;2024-03-02T14:41:34;5.70;;;3.75;;
15071;SDS011;7635;56.696;13.002;2024-03-02T14:47:19;3.43;;;2.93;;
15071;SDS011;7635;56.696;13.002;2024-03-02T14:52:57;4.05;;;3.35;;
15071;SDS011;7635;56.696;13.002;2024-03-02T14:55:49;5.07;;;3.33;;
15071;SDS011;7635;56.696;13.002;2024-03-02T14:58:39;5.18;;;4.05;;
15071;SDS011;7635;56.696;13.002;2024-03-02T15:01:19;6.72;;;4.90;;
15071;SDS011;7635;56.696;13.002;2024-03-02T15:03:55;6.40;;;4.45;;
15071;SDS011;7635;56.696;13.002;2024-03-02T15:12:57;4.93;;;3.80;;
15071;SDS011;7635;56.696;13.002;2024-03-02T15:19:00;6.82;;;4.63;;
15071;SDS011;7635;56.696;13.002;2024-03-02T15:19:08;7.60;;;5.85;;
15071;SDS011;7635;56.696;13.002;2024-03-02T15:21:31;6.20;;;3.90;;
15071;SDS011;7635;56.696;13.002;2024-03-02T15:24:21;6.67;;;3.73;;
15071;SDS011;7635;56.696;13.002;2024-03-02T15:27:18;6.90;;;4.88;;
15071;SDS011;7635;56.696;13.002;2024-03-02T15:30:04;5.53;;;3.90;;
15071;SDS011;7635;56.696;13.002;2024-03-02T15:32:50;6.17;;;3.00;;
15071;SDS011;7635;56.696;13.002;2024-03-02T15:35:53;5.10;;;3.67;;
15071;SDS011;7635;56.696;13.002;2024-03-02T15:41:34;8.43;;;4.13;;
15071;SDS011;7635;56.696;13.002;2024-03-02T15:44:01;5.87;;;3.87;;
15071;SDS011;7635;56.696;13.002;2024-03-02T15:46:30;5.30;;;3.90;;
15071;SDS011;7635;56.696;13.002;2024-03-02T15:48:57;6.83;;;5.20;;
15071;SDS011;7635;56.696;13.002;2024-03-02T15:51:25;8.23;;;4.70;;
15071;SDS011;7635;56.696;13.002;2024-03-02T15:53:52;9.00;;;4.77;;
15071;SDS011;7635;56.696;13.002;2024-03-02T15:56:19;8.80;;;4.70;;
15071;SDS011;7635;56.696;13.002;2024-03-02T15:58:46;7.75;;;4.07;;
15071;SDS011;7635;56.696;13.002;2024-03-02T16:01:14;6.18;;;4.30;;
15071;SDS011;7635;56.696;13.002;2024-03-02T16:03:42;9.03;;;4.90;;
15071;SDS011;7635;56.696;13.002;2024-03-02T16:06:10;8.37;;;4.93;;
15071;SDS011;7635;56.696;13.002;2024-03-02T16:08:37;8.93;;;4.93;;
15071;SDS011;7635;56.696;13.002;2024-03-02T16:11:04;8.85;;;5.25;;
15071;SDS011;7635;56.696;13.002;2024-03-02T16:13:33;10.20;;;5.78;;
15071;SDS011;7635;56.696;13.002;2024-03-02T16:16:26;9.50;;;4.85;;
15071;SDS011;7635;56.696;13.002;2024-03-02T16:22:23;8.95;;;5.35;;
15071;SDS011;7635;56.696;13.002;2024-03-02T16:24:59;8.25;;;4.65;;
15071;SDS011;7635;56.696;13.002;2024-03-02T16:27:26;11.70;;;5.28;;
15071;SDS011;7635;56.696;13.002;2024-03-02T16:29:53;8.93;;;5.15;;
15071;SDS011;7635;56.696;13.002;2024-03-02T16:32:23;11.35;;;5.93;;
15071;SDS011;7635;56.696;13.002;2024-03-02T16:34:50;12.20;;;5.68;;
15071;SDS011;7635;56.696;13.002;2024-03-02T16:37:18;8.45;;;5.35;;
15071;SDS011;7635;56.696;13.002;2024-03-02T16:39:46;8.77;;;5.05;;
15071;SDS011;7635;56.696;13.002;2024-03-02T16:42:13;8.55;;;6.03;;
15071;SDS011;7635;56.696;13.002;2024-03-02T16:44:41;10.15;;;5.85;;
15071;SDS011;7635;56.696;13.002;2024-03-02T16:47:08;12.32;;;6.72;;
15071;SDS011;7635;56.696;13.002;2024-03-02T16:49:35;15.13;;;6.72;;
15071;SDS011;7635;56.696;13.002;2024-03-02T16:52:03;9.23;;;5.38;;
15071;SDS011;7635;56.696;13.002;2024-03-02T16:54:30;10.63;;;5.95;;
15071;SDS011;7635;56.696;13.002;2024-03-02T16:56:58;11.90;;;6.93;;
15071;SDS011;7635;56.696;13.002;2024-03-02T16:59:25;16.75;;;7.93;;
15071;SDS011;7635;56.696;13.002;2024-03-02T17:01:52;13.02;;;6.10;;
15071;SDS011;7635;56.696;13.002;2024-03-02T17:04:19;10.73;;;7.00;;
15071;SDS011;7635;56.696;13.002;2024-03-02T17:06:47;8.75;;;5.57;;
15071;SDS011;7635;56.696;13.002;2024-03-02T17:09:14;15.75;;;7.60;;
15071;SDS011;7635;56.696;13.002;2024-03-02T17:11:41;15.77;;;7.10;;
15071;SDS011;7635;56.696;13.002;2024-03-02T17:14:09;14.48;;;7.75;;
15071;SDS011;7635;56.696;13.002;2024-03-02T17:16:36;14.98;;;6.55;;
15071;SDS011;7635;56.696;13.002;2024-03-02T17:19:03;11.55;;;5.85;;
15071;SDS011;7635;56.696;13.002;2024-03-02T17:21:30;14.77;;;7.28;;
15071;SDS011;7635;56.696;13.002;2024-03-02T17:23:58;16.65;;;8.93;;
15071;SDS011;7635;56.696;13.002;2024-03-02T17:26:28;15.65;;;7.75;;
15071;SDS011;7635;56.696;13.002;2024-03-02T17:28:55;18.38;;;8.95;;
15071;SDS011;7635;56.696;13.002;2024-03-02T17:31:24;16.52;;;6.95;;
15071;SDS011;7635;56.696;13.002;2024-03-02T17:33:51;14.65;;;7.40;;
15071;SDS011;7635;56.696;13.002;2024-03-02T17:36:18;14.48;;;7.65;;
15071;SDS011;7635;56.696;13.002;2024-03-02T17:38:45;13.80;;;7.38;;
15071;SDS011;7635;56.696;13.002;2024-03-02T17:41:12;16.83;;;8.00;;
15071;SDS011;7635;56.696;13.002;2024-03-02T17:43:39;16.75;;;8.73;;
15071;SDS011;7635;56.696;13.002;2024-03-02T17:46:06;13.88;;;7.05;;
15071;SDS011;7635;56.696;13.002;2024-03-02T17:48:35;11.02;;;6.30;;
15071;SDS011;7635;56.696;13.002;2024-03-02T17:51:05;11.63;;;7.22;;
15071;SDS011;7635;56.696;13.002;2024-03-02T17:53:33;16.80;;;8.35;;
15071;SDS011;7635;56.696;13.002;2024-03-02T17:56:00;15.93;;;8.87;;
15071;SDS011;7635;56.696;13.002;2024-03-02T17:58:27;16.25;;;8.13;;
15071;SDS011;7635;56.696;13.002;2024-03-02T18:00:54;21.50;;;9.85;;
15071;SDS011;7635;56.696;13.002;2024-03-02T18:03:21;17.75;;;7.40;;
15071;SDS011;7635;56.696;13.002;2024-03-02T18:05:50;19.73;;;9.93;;
15071;SDS011;7635;56.696;13.002;2024-03-02T18:08:17;18.90;;;9.27;;
15071;SDS011;7635;56.696;13.002;2024-03-02T18:10:44;16.67;;;8.80;;
15071;SDS011;7635;56.696;13.002;2024-03-02T18:13:12;17.00;;;8.75;;
15071;SDS011;7635;56.696;13.002;2024-03-02T18:15:40;16.47;;;8.00;;
15071;SDS011;7635;56.696;13.002;2024-03-02T18:18:07;22.23;;;10.07;;
15071;SDS011;7635;56.696;13.002;2024-03-02T18:20:34;17.58;;;9.35;;
15071;SDS011;7635;56.696;13.002;2024-03-02T18:23:03;21.27;;;10.60;;
15071;SDS011;7635;56.696;13.002;2024-03-02T18:25:30;19.52;;;8.27;;